sensor_id;sensor_type;location;lat;lon;timestamp;P1;durP1;ratioP1;P2;durP2;ratioP2
51332;SDS011;37417;48.118;11.734;2023-01-28T00:00:32;23.83;;;13.13;;
51332;SDS011;37417;48.118;11.734;2023-01-28T00:02:57;27.88;;;12.98;;
51332;SDS011;37417;48.118;11.734;2023-01-28T00:05:22;26.55;;;11.95;;
51332;SDS011;37417;48.118;11.734;2023-01-28T00:07:48;24.23;;;12.60;;
51332;SDS011;37417;48.118;11.734;2023-01-28T00:10:14;27.95;;;12.02;;
51332;SDS011;37417;48.118;11.734;2023-01-28T00:12:39;28.38;;;12.25;;
51332;SDS011;37417;48.118;11.734;2023-01-28T00:15:04;23.40;;;12.32;;
51332;SDS011;37417;48.118;11.734;2023-01-28T00:17:29;26.00;;;12.60;;
51332;SDS011;37417;48.118;11.734;2023-01-28T00:19:55;24.73;;;13.37;;
51332;SDS011;37417;48.118;11.734;2023-01-28T00:22:20;23.90;;;12.67;;
51332;SDS011;37417;48.118;11.734;2023-01-28T00:24:45;26.05;;;12.43;;
51332;SDS011;37417;48.118;11.734;2023-01-28T00:27:11;22.35;;;11.40;;
51332;SDS011;37417;48.118;11.734;2023-01-28T00:29:36;19.45;;;11.48;;
51332;SDS011;37417;48.118;11.734;2023-01-28T00:32:02;26.63;;;11.15;;
51332;SDS011;37417;48.118;11.734;2023-01-28T00:34:27;30.00;;;13.07;;
51332;SDS011;37417;48.118;11.734;2023-01-28T00:36:52;27.07;;;11.60;;
51332;SDS011;37417;48.118;11.734;2023-01-28T00:39:24;24.42;;;12.35;;
51332;SDS011;37417;48.118;11.734;2023-01-28T00:41:50;25.83;;;13.27;;
51332;SDS011;37417;48.118;11.734;2023-01-28T00:44:15;23.23;;;11.82;;
51332;SDS011;37417;48.118;11.734;2023-01-28T00:46:40;26.65;;;12.18;;
51332;SDS011;37417;48.118;11.734;2023-01-28T00:49:06;25.07;;;11.40;;
51332;SDS011;37417;48.118;11.734;2023-01-28T00:51:31;25.45;;;13.48;;
51332;SDS011;37417;48.118;11.734;2023-01-28T00:53:56;30.83;;;12.90;;
51332;SDS011;37417;48.118;11.734;2023-01-28T00:56:21;25.30;;;11.55;;
51332;SDS011;37417;48.118;11.734;2023-01-28T00:58:47;24.52;;;12.48;;
51332;SDS011;37417;48.118;11.734;2023-01-28T01:01:13;27.40;;;11.07;;
51332;SDS011;37417;48.118;11.734;2023-01-28T01:03:38;25.20;;;11.80;;
51332;SDS011;37417;48.118;11.734;2023-01-28T01:06:04;18.67;;;10.32;;
51332;SDS011;37417;48.118;11.734;2023-01-28T01:08:29;21.77;;;11.25;;
51332;SDS011;37417;48.118;11.734;2023-01-28T01:11:02;25.05;;;12.30;;
51332;SDS011;37417;48.118;11.734;2023-01-28T01:13:27;25.70;;;13.07;;
51332;SDS011;37417;48.118;11.734;2023-01-28T01:16:05;26.80;;;12.95;;
51332;SDS011;37417;48.118;11.734;2023-01-28T01:18:31;23.45;;;11.07;;
51332;SDS011;37417;48.118;11.734;2023-01-28T01:20:58;28.17;;;12.95;;
51332;SDS011;37417;48.118;11.734;2023-01-28T01:23:30;25.83;;;11.97;;
51332;SDS011;37417;48.118;11.734;2023-01-28T01:25:56;31.60;;;13.93;;
51332;SDS011;37417;48.118;11.734;2023-01-28T01:28:21;27.77;;;13.27;;
51332;SDS011;37417;48.118;11.734;2023-01-28T01:30:46;21.80;;;11.63;;
51332;SDS011;37417;48.118;11.734;2023-01-28T01:33:12;32.80;;;11.93;;
51332;SDS011;37417;48.118;11.734;2023-01-28T01:35:37;24.17;;;11.63;;
51332;SDS011;37417;48.118;11.734;2023-01-28T01:38:03;22.52;;;12.10;;
51332;SDS011;37417;48.118;11.734;2023-01-28T01:40:28;30.70;;;13.18;;
51332;SDS011;37417;48.118;11.734;2023-01-28T01:42:53;24.30;;;12.45;;
51332;SDS011;37417;48.118;11.734;2023-01-28T01:45:19;29.98;;;12.30;;
51332;SDS011;37417;48.118;11.734;2023-01-28T01:50:27;22.77;;;12.17;;
51332;SDS011;37417;48.118;11.734;2023-01-28T01:52:54;20.00;;;11.05;;
51332;SDS011;37417;48.118;11.734;2023-01-28T01:55:20;22.13;;;11.50;;
51332;SDS011;37417;48.118;11.734;2023-01-28T01:57:46;27.80;;;13.70;;
51332;SDS011;37417;48.118;11.734;2023-01-28T02:00:12;26.30;;;12.98;;
51332;SDS011;37417;48.118;11.734;2023-01-28T02:02:39;23.88;;;12.38;;
51332;SDS011;37417;48.118;11.734;2023-01-28T02:05:05;28.92;;;12.82;;
51332;SDS011;37417;48.118;11.734;2023-01-28T02:07:31;26.15;;;12.30;;
51332;SDS011;37417;48.118;11.734;2023-01-28T02:09:56;24.90;;;14.00;;
51332;SDS011;37417;48.118;11.734;2023-01-28T02:12:55;23.90;;;11.47;;
51332;SDS011;37417;48.118;11.734;2023-01-28T02:15:14;26.67;;;12.98;;
51332;SDS011;37417;48.118;11.734;2023-01-28T02:17:40;24.77;;;12.82;;
51332;SDS011;37417;48.118;11.734;2023-01-28T02:20:13;22.02;;;12.23;;
51332;SDS011;37417;48.118;11.734;2023-01-28T02:30:12;28.43;;;13.63;;
51332;SDS011;37417;48.118;11.734;2023-01-28T02:32:44;23.73;;;10.93;;
51332;SDS011;37417;48.118;11.734;2023-01-28T02:35:14;24.58;;;12.60;;
51332;SDS011;37417;48.118;11.734;2023-01-28T02:37:44;24.25;;;12.27;;
51332;SDS011;37417;48.118;11.734;2023-01-28T02:40:14;26.73;;;13.85;;
51332;SDS011;37417;48.118;11.734;2023-01-28T02:42:40;24.45;;;12.90;;
51332;SDS011;37417;48.118;11.734;2023-01-28T02:45:11;24.38;;;13.60;;
51332;SDS011;37417;48.118;11.734;2023-01-28T02:47:39;22.38;;;12.18;;
51332;SDS011;37417;48.118;11.734;2023-01-28T02:50:23;29.98;;;12.65;;
51332;SDS011;37417;48.118;11.734;2023-01-28T02:55:35;23.17;;;11.13;;
51332;SDS011;37417;48.118;11.734;2023-01-28T03:00:43;26.65;;;13.73;;
51332;SDS011;37417;48.118;11.734;2023-01-28T03:03:14;23.15;;;12.95;;
51332;SDS011;37417;48.118;11.734;2023-01-28T03:05:41;28.70;;;13.80;;
51332;SDS011;37417;48.118;11.734;2023-01-28T03:08:31;20.60;;;11.23;;
51332;SDS011;37417;48.118;11.734;2023-01-28T03:11:16;23.75;;;12.90;;
51332;SDS011;37417;48.118;11.734;2023-01-28T03:13:59;24.90;;;12.65;;
51332;SDS011;37417;48.118;11.734;2023-01-28T03:16:44;25.30;;;11.98;;
51332;SDS011;37417;48.118;11.734;2023-01-28T03:19:28;27.48;;;13.43;;
51332;SDS011;37417;48.118;11.734;2023-01-28T03:22:13;24.67;;;11.80;;
51332;SDS011;37417;48.118;11.734;2023-01-28T03:24:57;29.60;;;11.95;;
51332;SDS011;37417;48.118;11.734;2023-01-28T03:30:36;23.67;;;12.75;;
51332;SDS011;37417;48.118;11.734;2023-01-28T03:33:21;27.90;;;12.95;;
51332;SDS011;37417;48.118;11.734;2023-01-28T03:36:05;20.73;;;11.75;;
51332;SDS011;37417;48.118;11.734;2023-01-28T03:38:50;23.00;;;13.45;;
51332;SDS011;37417;48.118;11.734;2023-01-28T03:41:19;22.63;;;13.57;;
51332;SDS011;37417;48.118;11.734;2023-01-28T03:43:44;25.80;;;13.88;;
51332;SDS011;37417;48.118;11.734;2023-01-28T03:46:09;34.97;;;13.97;;
51332;SDS011;37417;48.118;11.734;2023-01-28T03:48:35;25.63;;;12.33;;
51332;SDS011;37417;48.118;11.734;2023-01-28T03:51:00;21.63;;;12.53;;
51332;SDS011;37417;48.118;11.734;2023-01-28T03:53:25;27.63;;;14.03;;
51332;SDS011;37417;48.118;11.734;2023-01-28T03:55:51;24.85;;;13.73;;
51332;SDS011;37417;48.118;11.734;2023-01-28T03:58:17;29.33;;;13.73;;
51332;SDS011;37417;48.118;11.734;2023-01-28T04:00:43;25.27;;;12.25;;
51332;SDS011;37417;48.118;11.734;2023-01-28T04:05:41;21.27;;;10.68;;
51332;SDS011;37417;48.118;11.734;2023-01-28T04:08:06;24.02;;;13.32;;
51332;SDS011;37417;48.118;11.734;2023-01-28T04:10:31;29.00;;;14.17;;
51332;SDS011;37417;48.118;11.734;2023-01-28T04:12:57;28.47;;;12.67;;
51332;SDS011;37417;48.118;11.734;2023-01-28T04:15:22;21.97;;;11.47;;
51332;SDS011;37417;48.118;11.734;2023-01-28T04:17:47;22.77;;;11.80;;
51332;SDS011;37417;48.118;11.734;2023-01-28T04:20:13;26.90;;;13.40;;
51332;SDS011;37417;48.118;11.734;2023-01-28T04:22:39;24.90;;;13.05;;
51332;SDS011;37417;48.118;11.734;2023-01-28T04:25:04;22.42;;;11.82;;
51332;SDS011;37417;48.118;11.734;2023-01-28T04:27:29;22.55;;;12.52;;
51332;SDS011;37417;48.118;11.734;2023-01-28T04:29:55;26.50;;;13.73;;
51332;SDS011;37417;48.118;11.734;2023-01-28T04:32:20;28.30;;;14.00;;
51332;SDS011;37417;48.118;11.734;2023-01-28T04:34:45;21.50;;;12.57;;
51332;SDS011;37417;48.118;11.734;2023-01-28T04:37:10;23.87;;;12.90;;
51332;SDS011;37417;48.118;11.734;2023-01-28T04:39:35;27.87;;;13.93;;
51332;SDS011;37417;48.118;11.734;2023-01-28T04:42:00;28.85;;;14.32;;
51332;SDS011;37417;48.118;11.734;2023-01-28T04:44:26;28.53;;;13.00;;
51332;SDS011;37417;48.118;11.734;2023-01-28T04:46:51;29.08;;;15.45;;
51332;SDS011;37417;48.118;11.734;2023-01-28T04:49:16;30.10;;;13.00;;
51332;SDS011;37417;48.118;11.734;2023-01-28T04:51:41;21.60;;;11.97;;
51332;SDS011;37417;48.118;11.734;2023-01-28T04:54:06;25.63;;;14.27;;
51332;SDS011;37417;48.118;11.734;2023-01-28T04:56:32;29.42;;;13.52;;
51332;SDS011;37417;48.118;11.734;2023-01-28T04:58:57;30.08;;;13.02;;
51332;SDS011;37417;48.118;11.734;2023-01-28T05:01:22;20.88;;;11.82;;
51332;SDS011;37417;48.118;11.734;2023-01-28T05:03:49;25.67;;;13.10;;
51332;SDS011;37417;48.118;11.734;2023-01-28T05:06:14;25.33;;;12.18;;
51332;SDS011;37417;48.118;11.734;2023-01-28T05:08:39;27.20;;;13.48;;
51332;SDS011;37417;48.118;11.734;2023-01-28T05:11:04;23.30;;;13.23;;
51332;SDS011;37417;48.118;11.734;2023-01-28T05:13:29;22.88;;;12.13;;
51332;SDS011;37417;48.118;11.734;2023-01-28T05:15:55;24.33;;;11.70;;
51332;SDS011;37417;48.118;11.734;2023-01-28T05:18:20;20.92;;;12.20;;
51332;SDS011;37417;48.118;11.734;2023-01-28T05:20:45;22.60;;;11.30;;
51332;SDS011;37417;48.118;11.734;2023-01-28T05:23:11;26.35;;;12.38;;
51332;SDS011;37417;48.118;11.734;2023-01-28T05:25:36;20.77;;;10.77;;
51332;SDS011;37417;48.118;11.734;2023-01-28T05:28:01;22.23;;;12.40;;
51332;SDS011;37417;48.118;11.734;2023-01-28T05:30:26;26.93;;;12.70;;
51332;SDS011;37417;48.118;11.734;2023-01-28T05:32:55;31.50;;;14.87;;
51332;SDS011;37417;48.118;11.734;2023-01-28T05:35:20;25.20;;;12.68;;
51332;SDS011;37417;48.118;11.734;2023-01-28T05:37:46;25.13;;;10.73;;
51332;SDS011;37417;48.118;11.734;2023-01-28T05:40:11;24.90;;;12.53;;
51332;SDS011;37417;48.118;11.734;2023-01-28T05:42:36;27.63;;;12.52;;
51332;SDS011;37417;48.118;11.734;2023-01-28T05:45:02;20.85;;;11.80;;
51332;SDS011;37417;48.118;11.734;2023-01-28T05:47:27;21.27;;;11.00;;
51332;SDS011;37417;48.118;11.734;2023-01-28T05:49:52;27.08;;;11.88;;
51332;SDS011;37417;48.118;11.734;2023-01-28T05:52:17;23.17;;;12.60;;
51332;SDS011;37417;48.118;11.734;2023-01-28T05:54:42;27.47;;;12.50;;
51332;SDS011;37417;48.118;11.734;2023-01-28T05:57:08;24.67;;;12.27;;
51332;SDS011;37417;48.118;11.734;2023-01-28T05:59:33;24.30;;;13.00;;
51332;SDS011;37417;48.118;11.734;2023-01-28T06:01:59;21.88;;;12.70;;
51332;SDS011;37417;48.118;11.734;2023-01-28T06:04:24;25.13;;;12.87;;
51332;SDS011;37417;48.118;11.734;2023-01-28T06:06:49;22.60;;;11.18;;
51332;SDS011;37417;48.118;11.734;2023-01-28T06:09:14;24.90;;;13.57;;
51332;SDS011;37417;48.118;11.734;2023-01-28T06:11:39;23.95;;;12.50;;
51332;SDS011;37417;48.118;11.734;2023-01-28T06:14:05;25.67;;;11.88;;
51332;SDS011;37417;48.118;11.734;2023-01-28T06:16:30;24.10;;;11.20;;
51332;SDS011;37417;48.118;11.734;2023-01-28T06:18:55;23.40;;;11.80;;
51332;SDS011;37417;48.118;11.734;2023-01-28T06:21:20;22.40;;;11.23;;
51332;SDS011;37417;48.118;11.734;2023-01-28T06:23:45;21.27;;;12.03;;
51332;SDS011;37417;48.118;11.734;2023-01-28T06:26:10;21.47;;;10.97;;
51332;SDS011;37417;48.118;11.734;2023-01-28T06:28:36;21.20;;;11.50;;
51332;SDS011;37417;48.118;11.734;2023-01-28T06:31:01;28.00;;;11.87;;
51332;SDS011;37417;48.118;11.734;2023-01-28T06:33:26;25.95;;;11.25;;
51332;SDS011;37417;48.118;11.734;2023-01-28T06:35:53;20.90;;;11.73;;
51332;SDS011;37417;48.118;11.734;2023-01-28T06:38:18;23.37;;;11.73;;
51332;SDS011;37417;48.118;11.734;2023-01-28T06:40:43;26.63;;;12.27;;
51332;SDS011;37417;48.118;11.734;2023-01-28T06:43:08;24.50;;;11.63;;
51332;SDS011;37417;48.118;11.734;2023-01-28T06:45:33;27.20;;;11.43;;
51332;SDS011;37417;48.118;11.734;2023-01-28T06:47:59;26.63;;;11.93;;
51332;SDS011;37417;48.118;11.734;2023-01-28T06:50:24;22.97;;;12.23;;
51332;SDS011;37417;48.118;11.734;2023-01-28T06:52:49;28.70;;;11.88;;
51332;SDS011;37417;48.118;11.734;2023-01-28T06:55:14;27.30;;;12.27;;
51332;SDS011;37417;48.118;11.734;2023-01-28T06:57:40;22.03;;;12.10;;
51332;SDS011;37417;48.118;11.734;2023-01-28T07:00:06;25.58;;;12.85;;
51332;SDS011;37417;48.118;11.734;2023-01-28T07:02:32;23.70;;;11.43;;
51332;SDS011;37417;48.118;11.734;2023-01-28T07:04:57;24.10;;;12.07;;
51332;SDS011;37417;48.118;11.734;2023-01-28T07:07:22;28.80;;;13.27;;
51332;SDS011;37417;48.118;11.734;2023-01-28T07:09:48;24.03;;;12.30;;
51332;SDS011;37417;48.118;11.734;2023-01-28T07:12:13;22.47;;;11.63;;
51332;SDS011;37417;48.118;11.734;2023-01-28T07:14:38;24.45;;;12.13;;
51332;SDS011;37417;48.118;11.734;2023-01-28T07:17:03;18.93;;;11.73;;
51332;SDS011;37417;48.118;11.734;2023-01-28T07:19:29;26.70;;;12.57;;
51332;SDS011;37417;48.118;11.734;2023-01-28T07:21:54;23.30;;;13.07;;
51332;SDS011;37417;48.118;11.734;2023-01-28T07:24:22;23.15;;;10.40;;
51332;SDS011;37417;48.118;11.734;2023-01-28T07:26:47;27.42;;;12.52;;
51332;SDS011;37417;48.118;11.734;2023-01-28T07:29:12;21.67;;;11.63;;
51332;SDS011;37417;48.118;11.734;2023-01-28T07:31:37;22.00;;;12.30;;
51332;SDS011;37417;48.118;11.734;2023-01-28T07:34:02;23.07;;;12.37;;
51332;SDS011;37417;48.118;11.734;2023-01-28T07:36:28;22.27;;;12.20;;
51332;SDS011;37417;48.118;11.734;2023-01-28T07:38:53;24.87;;;13.03;;
51332;SDS011;37417;48.118;11.734;2023-01-28T07:41:18;23.40;;;11.60;;
51332;SDS011;37417;48.118;11.734;2023-01-28T07:43:43;22.93;;;11.37;;
51332;SDS011;37417;48.118;11.734;2023-01-28T07:46:08;27.40;;;12.83;;
51332;SDS011;37417;48.118;11.734;2023-01-28T07:48:33;23.90;;;12.10;;
51332;SDS011;37417;48.118;11.734;2023-01-28T07:51:00;19.52;;;10.68;;
51332;SDS011;37417;48.118;11.734;2023-01-28T07:53:25;17.67;;;10.13;;
51332;SDS011;37417;48.118;11.734;2023-01-28T07:55:50;21.63;;;12.10;;
51332;SDS011;37417;48.118;11.734;2023-01-28T07:58:15;22.13;;;10.97;;
51332;SDS011;37417;48.118;11.734;2023-01-28T08:00:41;27.88;;;12.82;;
51332;SDS011;37417;48.118;11.734;2023-01-28T08:03:09;22.73;;;12.80;;
51332;SDS011;37417;48.118;11.734;2023-01-28T08:05:40;22.00;;;12.07;;
51332;SDS011;37417;48.118;11.734;2023-01-28T08:08:07;26.55;;;11.13;;
51332;SDS011;37417;48.118;11.734;2023-01-28T08:10:32;20.98;;;10.73;;
51332;SDS011;37417;48.118;11.734;2023-01-28T08:12:58;22.70;;;11.27;;
51332;SDS011;37417;48.118;11.734;2023-01-28T08:15:23;22.23;;;12.15;;
51332;SDS011;37417;48.118;11.734;2023-01-28T08:17:49;23.50;;;11.93;;
51332;SDS011;37417;48.118;11.734;2023-01-28T08:20:14;20.43;;;11.67;;
51332;SDS011;37417;48.118;11.734;2023-01-28T08:22:39;25.77;;;12.07;;
51332;SDS011;37417;48.118;11.734;2023-01-28T08:25:05;25.00;;;12.30;;
51332;SDS011;37417;48.118;11.734;2023-01-28T08:27:30;22.88;;;11.65;;
51332;SDS011;37417;48.118;11.734;2023-01-28T08:29:55;25.80;;;12.77;;
51332;SDS011;37417;48.118;11.734;2023-01-28T08:32:20;23.10;;;12.00;;
51332;SDS011;37417;48.118;11.734;2023-01-28T08:34:45;24.77;;;11.33;;
51332;SDS011;37417;48.118;11.734;2023-01-28T08:37:11;24.13;;;11.77;;
51332;SDS011;37417;48.118;11.734;2023-01-28T08:39:36;21.80;;;10.93;;
51332;SDS011;37417;48.118;11.734;2023-01-28T08:42:01;21.30;;;10.83;;
51332;SDS011;37417;48.118;11.734;2023-01-28T08:44:26;23.17;;;11.47;;
51332;SDS011;37417;48.118;11.734;2023-01-28T08:46:51;21.13;;;10.50;;
51332;SDS011;37417;48.118;11.734;2023-01-28T08:49:17;23.42;;;11.40;;
51332;SDS011;37417;48.118;11.734;2023-01-28T08:51:42;22.47;;;10.67;;
51332;SDS011;37417;48.118;11.734;2023-01-28T08:54:07;22.53;;;11.63;;
51332;SDS011;37417;48.118;11.734;2023-01-28T08:56:32;22.17;;;11.43;;
51332;SDS011;37417;48.118;11.734;2023-01-28T08:58:57;17.45;;;10.20;;
51332;SDS011;37417;48.118;11.734;2023-01-28T09:01:22;22.83;;;12.97;;
51332;SDS011;37417;48.118;11.734;2023-01-28T09:03:48;22.30;;;11.75;;
51332;SDS011;37417;48.118;11.734;2023-01-28T09:06:13;23.20;;;12.20;;
51332;SDS011;37417;48.118;11.734;2023-01-28T09:08:38;20.63;;;11.70;;
51332;SDS011;37417;48.118;11.734;2023-01-28T09:11:03;17.20;;;10.30;;
51332;SDS011;37417;48.118;11.734;2023-01-28T09:13:29;21.97;;;11.83;;
51332;SDS011;37417;48.118;11.734;2023-01-28T09:15:54;23.43;;;11.17;;
51332;SDS011;37417;48.118;11.734;2023-01-28T09:18:20;16.30;;;8.75;;
51332;SDS011;37417;48.118;11.734;2023-01-28T09:20:45;19.98;;;11.32;;
51332;SDS011;37417;48.118;11.734;2023-01-28T09:23:10;18.50;;;10.60;;
51332;SDS011;37417;48.118;11.734;2023-01-28T09:25:35;18.05;;;9.35;;
51332;SDS011;37417;48.118;11.734;2023-01-28T09:28:01;20.02;;;11.48;;
51332;SDS011;37417;48.118;11.734;2023-01-28T09:30:27;21.30;;;10.90;;
51332;SDS011;37417;48.118;11.734;2023-01-28T09:32:52;26.65;;;11.63;;
51332;SDS011;37417;48.118;11.734;2023-01-28T09:35:18;21.40;;;12.65;;
51332;SDS011;37417;48.118;11.734;2023-01-28T09:37:43;23.23;;;12.23;;
51332;SDS011;37417;48.118;11.734;2023-01-28T09:40:11;19.95;;;11.77;;
51332;SDS011;37417;48.118;11.734;2023-01-28T09:45:11;15.85;;;9.98;;
51332;SDS011;37417;48.118;11.734;2023-01-28T09:47:43;19.40;;;10.82;;
51332;SDS011;37417;48.118;11.734;2023-01-28T09:50:26;20.90;;;11.40;;
51332;SDS011;37417;48.118;11.734;2023-01-28T09:52:56;21.27;;;10.23;;
51332;SDS011;37417;48.118;11.734;2023-01-28T09:55:35;17.15;;;10.57;;
51332;SDS011;37417;48.118;11.734;2023-01-28T09:58:03;19.33;;;11.13;;
51332;SDS011;37417;48.118;11.734;2023-01-28T10:00:34;20.13;;;10.48;;
51332;SDS011;37417;48.118;11.734;2023-01-28T10:08:41;18.88;;;9.93;;
51332;SDS011;37417;48.118;11.734;2023-01-28T10:13:45;20.07;;;13.77;;
51332;SDS011;37417;48.118;11.734;2023-01-28T10:19:13;22.30;;;11.45;;
51332;SDS011;37417;48.118;11.734;2023-01-28T10:21:41;18.73;;;10.63;;
51332;SDS011;37417;48.118;11.734;2023-01-28T10:24:16;20.27;;;10.23;;
51332;SDS011;37417;48.118;11.734;2023-01-28T10:26:42;16.45;;;9.48;;
51332;SDS011;37417;48.118;11.734;2023-01-28T10:29:25;17.73;;;9.65;;
51332;SDS011;37417;48.118;11.734;2023-01-28T10:31:56;16.15;;;9.57;;
51332;SDS011;37417;48.118;11.734;2023-01-28T10:34:23;16.55;;;9.25;;
51332;SDS011;37417;48.118;11.734;2023-01-28T10:36:48;16.52;;;9.70;;
51332;SDS011;37417;48.118;11.734;2023-01-28T10:39:14;16.55;;;10.18;;
51332;SDS011;37417;48.118;11.734;2023-01-28T10:41:40;14.23;;;9.52;;
51332;SDS011;37417;48.118;11.734;2023-01-28T10:44:09;16.80;;;10.23;;
51332;SDS011;37417;48.118;11.734;2023-01-28T10:46:37;15.75;;;9.30;;
51332;SDS011;37417;48.118;11.734;2023-01-28T10:51:32;15.73;;;9.88;;
51332;SDS011;37417;48.118;11.734;2023-01-28T10:53:57;14.30;;;8.63;;
51332;SDS011;37417;48.118;11.734;2023-01-28T10:56:26;17.65;;;10.77;;
51332;SDS011;37417;48.118;11.734;2023-01-28T11:04:04;14.82;;;9.13;;
51332;SDS011;37417;48.118;11.734;2023-01-28T11:06:29;20.48;;;10.13;;
51332;SDS011;37417;48.118;11.734;2023-01-28T11:08:55;16.92;;;10.68;;
51332;SDS011;37417;48.118;11.734;2023-01-28T11:11:26;15.38;;;9.10;;
51332;SDS011;37417;48.118;11.734;2023-01-28T11:13:52;14.45;;;8.45;;
51332;SDS011;37417;48.118;11.734;2023-01-28T11:16:18;13.52;;;9.32;;
51332;SDS011;37417;48.118;11.734;2023-01-28T11:18:49;16.55;;;10.55;;
51332;SDS011;37417;48.118;11.734;2023-01-28T11:21:17;15.13;;;9.48;;
51332;SDS011;37417;48.118;11.734;2023-01-28T11:23:48;13.68;;;8.82;;
51332;SDS011;37417;48.118;11.734;2023-01-28T11:26:16;18.08;;;9.32;;
51332;SDS011;37417;48.118;11.734;2023-01-28T11:28:42;17.73;;;9.73;;
51332;SDS011;37417;48.118;11.734;2023-01-28T11:31:08;13.23;;;8.23;;
51332;SDS011;37417;48.118;11.734;2023-01-28T11:36:04;13.98;;;9.20;;
51332;SDS011;37417;48.118;11.734;2023-01-28T11:38:29;13.07;;;9.02;;
51332;SDS011;37417;48.118;11.734;2023-01-28T11:40:55;12.33;;;8.53;;
51332;SDS011;37417;48.118;11.734;2023-01-28T11:43:25;13.27;;;9.05;;
51332;SDS011;37417;48.118;11.734;2023-01-28T11:48:37;13.70;;;9.13;;
51332;SDS011;37417;48.118;11.734;2023-01-28T11:51:15;15.18;;;9.18;;
51332;SDS011;37417;48.118;11.734;2023-01-28T11:56:33;14.18;;;8.00;;
51332;SDS011;37417;48.118;11.734;2023-01-28T11:59:07;14.23;;;8.50;;
51332;SDS011;37417;48.118;11.734;2023-01-28T12:09:19;11.47;;;8.07;;
51332;SDS011;37417;48.118;11.734;2023-01-28T12:14:35;14.00;;;8.00;;
51332;SDS011;37417;48.118;11.734;2023-01-28T12:27:33;10.98;;;7.22;;
51332;SDS011;37417;48.118;11.734;2023-01-28T12:42:49;11.77;;;7.88;;
51332;SDS011;37417;48.118;11.734;2023-01-28T12:45:20;14.90;;;9.00;;
51332;SDS011;37417;48.118;11.734;2023-01-28T12:47:54;10.73;;;7.15;;
51332;SDS011;37417;48.118;11.734;2023-01-28T12:50:24;13.40;;;8.25;;
51332;SDS011;37417;48.118;11.734;2023-01-28T12:52:58;14.35;;;8.88;;
51332;SDS011;37417;48.118;11.734;2023-01-28T12:57:56;12.68;;;7.50;;
51332;SDS011;37417;48.118;11.734;2023-01-28T13:05:42;10.67;;;7.83;;
51332;SDS011;37417;48.118;11.734;2023-01-28T13:10:35;11.27;;;7.63;;
51332;SDS011;37417;48.118;11.734;2023-01-28T13:13:03;13.43;;;7.72;;
51332;SDS011;37417;48.118;11.734;2023-01-28T13:15:28;10.35;;;7.32;;
51332;SDS011;37417;48.118;11.734;2023-01-28T13:17:58;11.52;;;7.43;;
51332;SDS011;37417;48.118;11.734;2023-01-28T13:20:34;15.35;;;7.78;;
51332;SDS011;37417;48.118;11.734;2023-01-28T13:23:01;9.98;;;6.43;;
51332;SDS011;37417;48.118;11.734;2023-01-28T13:25:26;10.80;;;7.55;;
51332;SDS011;37417;48.118;11.734;2023-01-28T13:28:02;9.88;;;6.60;;
51332;SDS011;37417;48.118;11.734;2023-01-28T13:30:29;13.52;;;7.05;;
51332;SDS011;37417;48.118;11.734;2023-01-28T13:32:55;11.45;;;6.97;;
51332;SDS011;37417;48.118;11.734;2023-01-28T13:35:28;12.57;;;7.57;;
51332;SDS011;37417;48.118;11.734;2023-01-28T13:37:54;10.27;;;6.93;;
51332;SDS011;37417;48.118;11.734;2023-01-28T13:40:23;13.05;;;6.80;;
51332;SDS011;37417;48.118;11.734;2023-01-28T13:42:59;13.52;;;7.65;;
51332;SDS011;37417;48.118;11.734;2023-01-28T13:45:24;16.08;;;8.00;;
51332;SDS011;37417;48.118;11.734;2023-01-28T13:50:36;12.93;;;6.82;;
51332;SDS011;37417;48.118;11.734;2023-01-28T13:53:04;11.38;;;6.68;;
51332;SDS011;37417;48.118;11.734;2023-01-28T13:55:35;12.07;;;7.13;;
51332;SDS011;37417;48.118;11.734;2023-01-28T14:11:00;13.23;;;6.75;;
51332;SDS011;37417;48.118;11.734;2023-01-28T14:18:45;11.30;;;6.60;;
51332;SDS011;37417;48.118;11.734;2023-01-28T14:21:11;10.80;;;6.35;;
51332;SDS011;37417;48.118;11.734;2023-01-28T14:23:36;11.98;;;7.22;;
51332;SDS011;37417;48.118;11.734;2023-01-28T14:30:53;13.50;;;7.57;;
51332;SDS011;37417;48.118;11.734;2023-01-28T14:33:19;9.35;;;5.88;;
51332;SDS011;37417;48.118;11.734;2023-01-28T14:35:46;11.70;;;6.78;;
51332;SDS011;37417;48.118;11.734;2023-01-28T14:38:16;12.50;;;7.20;;
51332;SDS011;37417;48.118;11.734;2023-01-28T14:40:42;13.10;;;7.15;;
51332;SDS011;37417;48.118;11.734;2023-01-28T14:43:12;14.85;;;7.13;;
51332;SDS011;37417;48.118;11.734;2023-01-28T14:58:44;14.82;;;7.80;;
51332;SDS011;37417;48.118;11.734;2023-01-28T15:01:20;14.07;;;7.50;;
51332;SDS011;37417;48.118;11.734;2023-01-28T15:03:46;10.82;;;7.00;;
51332;SDS011;37417;48.118;11.734;2023-01-28T15:06:12;11.40;;;6.60;;
51332;SDS011;37417;48.118;11.734;2023-01-28T15:08:38;13.45;;;7.82;;
51332;SDS011;37417;48.118;11.734;2023-01-28T15:11:05;11.82;;;7.82;;
51332;SDS011;37417;48.118;11.734;2023-01-28T15:13:35;16.95;;;8.80;;
51332;SDS011;37417;48.118;11.734;2023-01-28T15:16:01;16.17;;;9.10;;
51332;SDS011;37417;48.118;11.734;2023-01-28T15:18:31;17.17;;;9.18;;
51332;SDS011;37417;48.118;11.734;2023-01-28T15:20:57;18.90;;;9.52;;
51332;SDS011;37417;48.118;11.734;2023-01-28T15:23:28;14.73;;;8.07;;
51332;SDS011;37417;48.118;11.734;2023-01-28T15:25:55;18.08;;;9.27;;
51332;SDS011;37417;48.118;11.734;2023-01-28T15:28:25;15.07;;;8.75;;
51332;SDS011;37417;48.118;11.734;2023-01-28T15:30:51;14.38;;;7.90;;
51332;SDS011;37417;48.118;11.734;2023-01-28T15:33:19;15.63;;;8.33;;
51332;SDS011;37417;48.118;11.734;2023-01-28T15:35:45;16.38;;;9.18;;
51332;SDS011;37417;48.118;11.734;2023-01-28T15:38:10;15.32;;;9.00;;
51332;SDS011;37417;48.118;11.734;2023-01-28T15:40:39;17.45;;;8.82;;
51332;SDS011;37417;48.118;11.734;2023-01-28T15:43:10;14.00;;;7.82;;
51332;SDS011;37417;48.118;11.734;2023-01-28T15:45:39;18.77;;;9.52;;
51332;SDS011;37417;48.118;11.734;2023-01-28T15:48:09;16.20;;;8.05;;
51332;SDS011;37417;48.118;11.734;2023-01-28T15:50:35;14.38;;;8.07;;
51332;SDS011;37417;48.118;11.734;2023-01-28T15:53:02;16.30;;;9.02;;
51332;SDS011;37417;48.118;11.734;2023-01-28T15:55:35;14.50;;;8.15;;
51332;SDS011;37417;48.118;11.734;2023-01-28T15:58:34;16.77;;;9.23;;
51332;SDS011;37417;48.118;11.734;2023-01-28T16:03:33;16.05;;;8.63;;
51332;SDS011;37417;48.118;11.734;2023-01-28T16:06:01;18.77;;;8.73;;
51332;SDS011;37417;48.118;11.734;2023-01-28T16:08:38;18.67;;;8.13;;
51332;SDS011;37417;48.118;11.734;2023-01-28T16:11:04;15.95;;;9.27;;
51332;SDS011;37417;48.118;11.734;2023-01-28T16:13:30;20.77;;;8.50;;
51332;SDS011;37417;48.118;11.734;2023-01-28T16:15:56;13.15;;;7.65;;
51332;SDS011;37417;48.118;11.734;2023-01-28T16:20:54;14.97;;;8.97;;
51332;SDS011;37417;48.118;11.734;2023-01-28T16:23:20;16.73;;;8.95;;
51332;SDS011;37417;48.118;11.734;2023-01-28T16:25:56;15.63;;;8.98;;
51332;SDS011;37417;48.118;11.734;2023-01-28T16:28:22;15.93;;;8.48;;
51332;SDS011;37417;48.118;11.734;2023-01-28T16:30:47;13.98;;;8.23;;
51332;SDS011;37417;48.118;11.734;2023-01-28T16:33:16;15.80;;;8.50;;